Time;durP1;ratioP1;P1;durP2;ratioP2;P2;SDS_P1;SDS_P2;PMS_P1;PMS_P2;Temp;Humidity;BMP_temperature;BMP_pressure;BME280_temperature;BME280_humidity;BME280_pressure;Samples;Min_cycle;Max_cycle;Signal;HPM_P1;HPM_P2
2023/05/17 00:02:25;;;;;;;2.53;2.05;;;;;;;13.53;82.29;99215.09;5132883;27;19954;-83
2023/05/17 00:04:52;;;;;;;2.30;1.67;;;;;;;13.29;83.81;99184.13;5132201;27;20042;-82
2023/05/17 00:07:17;;;;;;;5.53;2.28;;;;;;;13.42;84.00;99190.72;5132389;27;20032;-82
2023/05/17 00:09:43;;;;;;;2.58;1.42;;;;;;;13.67;85.09;99222.56;5133271;27;20046;-83
2023/05/17 00:12:08;;;;;;;6.18;1.75;;;;;;;13.63;84.82;99202.38;5132919;27;20394;-83
2023/05/17 00:14:34;;;;;;;;;;;;;;;13.84;85.12;99215.78;5131566;27;20079;-82
2023/05/17 00:17:00;;;;;;;5.43;2.53;;;;;;;13.71;85.71;99200.31;5132296;27;19928;-82
2023/05/17 00:19:25;;;;;;;;;;;;;;;13.79;85.93;99218.59;5133625;27;20472;-83
2023/05/17 00:21:50;;;;;;;4.55;1.48;;;;;;;13.57;86.28;99184.91;5132475;27;19930;-82
2023/05/17 00:24:16;;;;;;;;;;;;;;;13.89;85.96;99216.50;5125368;27;20031;-82
2023/05/17 00:26:41;;;;;;;1.80;1.55;;;;;;;13.64;87.49;99182.91;5112198;28;19912;-83
2023/05/17 00:29:07;;;;;;;;;;;;;;;13.87;87.39;99216.56;5112352;28;20027;-83
2023/05/17 00:31:32;;;;;;;2.15;1.90;;;;;;;14.13;85.89;99220.00;5113495;27;19938;-83
2023/05/17 00:33:58;;;;;;;;;;;;;;;14.18;85.55;99220.72;5112575;27;20028;-83
2023/05/17 00:36:23;;;;;;;2.28;1.40;;;;;;;14.15;85.00;99202.28;5130934;27;20006;-82
2023/05/17 00:38:49;;;;;;;4.13;2.72;;;;;;;13.88;85.72;99172.34;5132809;27;20565;-82
2023/05/17 00:41:14;;;;;;;5.13;3.88;;;;;;;13.86;87.46;99214.81;5132402;27;20399;-82
2023/05/17 00:43:39;;;;;;;2.60;1.63;;;;;;;13.94;87.48;99226.00;5130682;27;20545;-82
2023/05/17 00:46:05;;;;;;;;;;;;;;;13.83;87.57;99209.63;5128952;27;20057;-82
2023/05/17 00:48:30;;;;;;;;;;;;;;;13.81;88.31;99211.47;5132965;27;19912;-84
2023/05/17 00:50:57;;;;;;;;;;;;;;;13.83;88.50;99196.34;5132601;27;19912;-82
2023/05/17 00:53:23;;;;;;;1.52;1.40;;;;;;;13.56;88.44;99158.44;5114049;27;20236;-84
2023/05/17 00:55:49;;;;;;;3.65;2.40;;;;;;;13.66;88.33;99162.50;5130405;27;20031;-84
2023/05/17 00:58:15;;;;;;;6.03;2.63;;;;;;;13.71;88.17;99176.44;5132061;27;20056;-83
2023/05/17 01:00:41;;;;;;;4.05;2.00;;;;;;;13.55;88.68;99170.00;5130134;27;20123;-83
2023/05/17 01:03:07;;;;;;;8.90;3.97;;;;;;;13.53;89.07;99169.16;5132098;27;20023;-82
2023/05/17 01:05:32;;;;;;;1.65;1.13;;;;;;;13.43;89.35;99166.84;5130137;27;20034;-83
2023/05/17 01:07:58;;;;;;;2.45;1.55;;;;;;;13.16;91.05;99160.69;5131837;27;20031;-82
2023/05/17 01:10:46;;;;;;;;;;;;;;;13.42;91.33;99186.31;5132031;27;20107;-82
2023/05/17 01:13:21;;;;;;;2.45;1.65;;;;;;;13.16;91.21;99179.22;5031706;28;20350;-82
2023/05/17 01:16:09;;;;;;;4.68;2.47;;;;;;;13.48;91.04;99200.25;5042840;28;20085;-83
2023/05/17 01:18:43;;;;;;;3.35;3.05;;;;;;;13.75;91.15;99211.69;5028384;28;20033;-83
2023/05/17 01:21:33;;;;;;;4.82;3.35;;;;;;;13.98;88.95;99200.25;5028286;28;20036;-83
2023/05/17 01:24:44;;;;;;;4.03;2.30;;;;;;;14.13;87.62;99188.19;5028048;28;21138;-83
2023/05/17 01:27:13;;;;;;;0.98;0.90;;;;;;;14.09;86.54;99175.97;5025908;28;20049;-83
2023/05/17 01:29:41;;;;;;;4.03;1.88;;;;;;;14.13;87.48;99189.06;5028352;28;20029;-84
2023/05/17 01:32:07;;;;;;;5.38;2.17;;;;;;;14.24;85.72;99148.00;5011386;28;20132;-84
2023/05/17 01:34:34;;;;;;;3.92;2.85;;;;;;;14.42;85.15;99162.34;5028066;28;20142;-83
2023/05/17 01:36:59;;;;;;;3.13;1.55;;;;;;;14.52;84.33;99155.75;5033057;28;20513;-82
2023/05/17 01:39:25;;;;;;;4.32;2.42;;;;;;;14.06;84.40;99084.13;5047958;28;20033;-82
2023/05/17 01:42:10;;;;;;;3.90;2.35;;;;;;;14.60;83.66;99155.44;5031571;28;20153;-81
2023/05/17 01:44:39;;;;;;;4.72;3.60;;;;;;;14.65;83.34;99162.31;5030857;28;20048;-82
2023/05/17 01:47:12;;;;;;;4.95;2.42;;;;;;;14.66;83.74;99158.75;5047556;28;20478;-82
2023/05/17 01:49:40;;;;;;;4.82;2.72;;;;;;;14.68;83.18;99154.22;5066089;27;20097;-83
2023/05/17 01:52:44;;;;;;;4.03;2.75;;;;;;;14.68;82.94;99166.63;5131291;27;20084;-82
2023/05/17 01:55:17;;;;;;;2.60;1.85;;;;;;;14.64;83.07;99170.34;5100721;27;20039;-82
2023/05/17 01:57:44;;;;;;;5.45;1.88;;;;;;;14.53;83.00;99138.03;5124990;27;20485;-83
2023/05/17 02:00:11;;;;;;;4.85;2.63;;;;;;;14.66;83.27;99156.09;5111656;27;20110;-82
2023/05/17 02:02:36;;;;;;;7.47;1.92;;;;;;;14.55;83.28;99157.41;5091611;28;20460;-83
2023/05/17 02:05:02;;;;;;;12.20;2.47;;;;;;;14.51;82.47;99136.28;5110620;28;20032;-83
2023/05/17 02:07:28;;;;;;;4.93;2.92;;;;;;;14.39;83.20;99131.47;5109772;28;20470;-83
2023/05/17 02:09:53;;;;;;;5.22;2.85;;;;;;;14.37;82.69;99133.31;5110630;28;20497;-82
2023/05/17 02:12:19;;;;;;;2.15;1.95;;;;;;;14.25;83.43;99145.28;5111201;28;20038;-83
2023/05/17 02:14:44;;;;;;;17.80;3.25;;;;;;;14.20;83.90;99146.41;5092086;28;20031;-84
2023/05/17 02:17:09;;;;;;;5.68;3.45;;;;;;;14.01;85.30;99149.75;5110546;28;20027;-83
2023/05/17 02:19:35;;;;;;;8.73;1.88;;;;;;;13.79;86.59;99132.00;5110126;28;20461;-82
2023/05/17 02:22:00;;;;;;;3.78;2.65;;;;;;;14.21;85.28;99158.72;5093126;28;20751;-82
2023/05/17 02:24:26;;;;;;;4.38;2.22;;;;;;;14.28;84.97;99190.25;5110694;28;20019;-85
2023/05/17 02:26:51;;;;;;;;;;;;;;;14.32;85.08;99175.09;5102388;28;20413;-82
2023/05/17 02:29:17;;;;;;;3.95;2.35;;;;;;;14.27;84.63;99172.63;5098962;28;20394;-82
2023/05/17 02:31:42;;;;;;;4.55;2.83;;;;;;;14.30;85.20;99188.44;5115402;27;20034;-82
2023/05/17 02:34:08;;;;;;;;;;;;;;;14.24;85.26;99186.00;5135292;27;20386;-82
2023/05/17 02:36:33;;;;;;;6.30;3.45;;;;;;;14.19;85.45;99189.75;5125765;27;20010;-83
2023/05/17 02:38:59;;;;;;;5.38;3.63;;;;;;;13.91;86.22;99180.16;5133391;27;20507;-82
2023/05/17 02:41:24;;;;;;;5.57;3.75;;;;;;;13.89;86.07;99144.91;5116853;27;20031;-83
2023/05/17 02:43:50;;;;;;;6.75;2.78;;;;;;;14.08;85.84;99171.59;5116354;27;20050;-83
2023/05/17 02:46:15;;;;;;;;;;;;;;;14.19;85.80;99193.25;5135025;27;20420;-82
2023/05/17 02:48:41;;;;;;;4.80;2.83;;;;;;;14.39;85.40;99200.47;5134985;27;19911;-82
2023/05/17 02:51:06;;;;;;;;;;;;;;;14.39;85.28;99210.22;5122743;27;20084;-82
2023/05/17 02:53:31;;;;;;;5.43;2.63;;;;;;;14.26;85.70;99191.25;5114260;28;19912;-82
2023/05/17 02:55:57;;;;;;;5.30;3.80;;;;;;;14.14;84.71;99166.91;5114267;28;20032;-82
2023/05/17 02:58:50;;;;;;;3.80;2.90;;;;;;;14.14;84.50;99158.09;5120378;27;20035;-82
2023/05/17 03:01:16;;;;;;;4.30;2.65;;;;;;;14.38;83.94;99208.47;5096537;27;20031;-83
2023/05/17 03:03:41;;;;;;;13.10;5.47;;;;;;;14.47;84.14;99240.84;5113577;28;20126;-83
2023/05/17 03:06:07;;;;;;;6.55;3.75;;;;;;;14.27;84.89;99214.19;5121997;27;20060;-82
2023/05/17 03:08:32;;;;;;;;;;;;;;;14.40;85.55;99238.50;5135011;27;20110;-83
2023/05/17 03:10:57;;;;;;;3.38;2.90;;;;;;;14.31;84.78;99205.19;5124698;27;19911;-83
2023/05/17 03:13:23;;;;;;;4.35;2.83;;;;;;;14.33;84.73;99222.81;5122577;27;20031;-82
2023/05/17 03:15:48;;;;;;;4.93;2.42;;;;;;;14.42;84.58;99231.31;5128146;27;20179;-82
2023/05/17 03:18:14;;;;;;;7.25;3.33;;;;;;;14.35;84.89;99221.84;5113792;28;20028;-82
2023/05/17 03:20:39;;;;;;;;;;;;;;;14.51;85.95;99255.72;5120672;27;20035;-83
2023/05/17 03:23:05;;;;;;;2.97;2.00;;;;;;;14.50;85.65;99253.13;5134398;27;19954;-82
2023/05/17 03:25:30;;;;;;;4.82;2.55;;;;;;;14.27;85.72;99211.53;5134009;27;20023;-84
2023/05/17 03:27:55;;;;;;;10.30;4.63;;;;;;;14.57;85.39;99248.47;5132125;27;20043;-83
2023/05/17 03:30:21;;;;;;;4.55;2.85;;;;;;;14.52;85.04;99227.41;5134172;27;20023;-83
2023/05/17 03:32:46;;;;;;;6.32;2.58;;;;;;;14.70;84.69;99249.72;5133586;27;20027;-82
2023/05/17 03:35:12;;;;;;;10.43;3.65;;;;;;;14.45;85.05;99226.75;5134026;27;20042;-82
2023/05/17 03:37:37;;;;;;;13.85;3.45;;;;;;;14.44;86.46;99234.78;5132190;27;20080;-82
2023/05/17 03:40:03;;;;;;;;;;;;;;;14.47;87.31;99264.72;5134796;27;20043;-82
2023/05/17 03:42:28;;;;;;;3.10;2.78;;;;;;;14.45;86.08;99240.03;5120806;27;20285;-82
2023/05/17 03:44:54;;;;;;;;;;;;;;;14.61;86.20;99268.66;5112904;27;20042;-81
2023/05/17 03:47:22;;;;;;;5.00;2.70;;;;;;;14.65;86.05;99267.63;5095087;27;19920;-81
2023/05/17 03:49:48;;;;;;;4.68;2.28;;;;;;;14.45;86.47;99228.56;5114964;27;20028;-81
2023/05/17 03:52:13;;;;;;;4.43;3.08;;;;;;;14.63;86.03;99257.06;5122289;27;20466;-81
2023/05/17 03:54:39;;;;;;;11.15;2.80;;;;;;;14.61;86.43;99266.91;5122895;27;20080;-82
2023/05/17 03:57:05;;;;;;;12.82;3.05;;;;;;;14.59;86.83;99238.63;5128993;27;20039;-82
2023/05/17 03:59:30;;;;;;;4.82;2.33;;;;;;;14.77;87.02;99248.56;5127130;27;20027;-82
2023/05/17 04:01:55;;;;;;;6.55;3.83;;;;;;;14.71;86.50;99232.03;5133400;27;20084;-82
2023/05/17 04:04:21;;;;;;;5.82;3.88;;;;;;;14.87;86.29;99249.06;5132876;27;20031;-81
2023/05/17 04:06:46;;;;;;;4.60;2.53;;;;;;;14.93;86.63;99240.00;5131231;27;20565;-82
2023/05/17 04:09:14;;;;;;;4.60;3.60;;;;;;;14.85;86.18;99227.88;5119829;27;20417;-82
2023/05/17 04:11:40;;;;;;;7.75;4.30;;;;;;;15.02;85.96;99255.56;5122400;27;20080;-82
2023/05/17 04:14:06;;;;;;;6.72;4.60;;;;;;;14.96;85.95;99243.38;5133017;27;20481;-82
2023/05/17 04:16:32;;;;;;;15.82;6.95;;;;;;;15.01;85.71;99256.47;5132935;27;20048;-85
2023/05/17 04:18:59;;;;;;;15.02;7.35;;;;;;;15.01;86.58;99265.34;5130861;27;20121;-83
2023/05/17 04:21:25;;;;;;;12.82;7.65;;;;;;;15.06;86.27;99248.31;5131872;27;20030;-82
2023/05/17 04:23:50;;;;;;;12.65;9.73;;;;;;;15.09;86.89;99262.38;5125288;27;20028;-81
2023/05/17 04:26:16;;;;;;;;;;;;;;;15.03;87.89;99266.13;5125362;27;20039;-81
2023/05/17 04:28:42;;;;;;;12.88;6.65;;;;;;;15.08;87.66;99254.47;5132813;27;20244;-81
2023/05/17 04:31:07;;;;;;;;;;;;;;;15.30;86.92;99267.72;5127020;27;20023;-82
2023/05/17 04:33:33;;;;;;;8.82;3.47;;;;;;;15.29;86.96;99252.69;5111005;28;19947;-83
2023/05/17 04:35:58;;;;;;;3.25;2.47;;;;;;;15.11;87.54;99231.28;5112218;28;20039;-81
2023/05/17 04:38:24;;;;;;;8.07;4.38;;;;;;;15.38;86.92;99239.03;5120329;27;20054;-82
2023/05/17 04:40:50;;;;;;;;;;;;;;;15.43;88.04;99260.09;5122431;27;20085;-82
2023/05/17 04:43:15;;;;;;;4.32;3.42;;;;;;;15.57;86.66;99224.03;5111231;28;19908;-81
2023/05/17 04:45:40;;;;;;;;;;;;;;;15.67;86.38;99256.41;5093858;27;20040;-82
2023/05/17 04:48:07;;;;;;;5.38;3.40;;;;;;;15.79;85.68;99244.41;5132050;27;19942;-81
2023/05/17 04:50:32;;;;;;;6.32;4.05;;;;;;;15.70;86.46;99227.03;5130043;27;20023;-85
2023/05/17 04:52:58;;;;;;;6.18;4.80;;;;;;;15.85;86.00;99222.88;5130807;27;20544;-81
2023/05/17 04:55:23;;;;;;;6.32;4.00;;;;;;;15.96;85.40;99233.03;5130813;27;20034;-81
2023/05/17 04:57:48;;;;;;;14.95;4.00;;;;;;;15.97;86.61;99253.38;5131520;27;20057;-82
2023/05/17 05:00:15;;;;;;;22.42;4.43;;;;;;;15.98;85.67;99217.84;5124746;27;20031;-83
2023/05/17 05:02:41;;;;;;;8.05;3.92;;;;;;;16.06;86.23;99223.69;5124303;27;20154;-81
2023/05/17 05:05:08;;;;;;;12.75;5.47;;;;;;;16.41;85.40;99247.84;5131845;27;20517;-82
2023/05/17 05:07:34;;;;;;;8.60;4.50;;;;;;;16.45;84.92;99245.88;5132172;27;20497;-82
2023/05/17 05:10:00;;;;;;;13.25;6.70;;;;;;;16.36;85.03;99219.69;5131104;27;20042;-82
2023/05/17 05:12:25;;;;;;;9.85;5.30;;;;;;;16.72;84.58;99256.22;5129525;27;20031;-81
2023/05/17 05:14:51;;;;;;;9.02;5.80;;;;;;;16.62;84.61;99237.13;5125664;27;20038;-82
2023/05/17 05:17:16;;;;;;;12.88;6.03;;;;;;;16.74;84.24;99235.69;5112581;27;20035;-82
2023/05/17 05:19:42;;;;;;;9.02;5.60;;;;;;;16.93;84.10;99238.34;5127560;27;20484;-82
2023/05/17 05:22:07;;;;;;;10.80;6.22;;;;;;;17.12;84.00;99256.97;5123222;27;20138;-81
2023/05/17 05:24:33;;;;;;;14.15;6.80;;;;;;;16.97;83.13;99219.47;5130944;27;20527;-81
2023/05/17 05:26:59;;;;;;;10.32;6.95;;;;;;;17.22;83.25;99244.06;5130655;27;20051;-81
2023/05/17 05:29:24;;;;;;;11.13;6.10;;;;;;;17.27;82.09;99245.56;5129254;27;20058;-81
2023/05/17 05:31:50;;;;;;;13.43;6.45;;;;;;;17.23;81.93;99214.66;5130834;27;20034;-80
2023/05/17 05:34:15;;;;;;;17.88;8.18;;;;;;;17.23;82.37;99208.47;5130158;27;20148;-82
2023/05/17 05:36:40;;;;;;;17.02;7.03;;;;;;;17.57;81.00;99233.44;5128769;27;20031;-81
2023/05/17 05:39:07;;;;;;;16.52;7.53;;;;;;;17.71;81.44;99253.09;5130122;27;20043;-82
2023/05/17 05:41:32;;;;;;;16.90;8.85;;;;;;;17.74;80.68;99252.09;5130850;27;20034;-81
2023/05/17 05:43:58;;;;;;;12.93;6.93;;;;;;;17.91;79.08;99242.41;5130602;27;20091;-81
2023/05/17 05:46:23;;;;;;;15.48;8.15;;;;;;;17.81;79.00;99226.84;5130065;27;20054;-81
2023/05/17 05:48:49;;;;;;;18.13;9.45;;;;;;;17.87;81.05;99236.31;5130926;27;20034;-81
2023/05/17 05:51:14;;;;;;;15.82;9.07;;;;;;;18.37;78.92;99259.47;5129922;27;20110;-81
2023/05/17 05:53:40;;;;;;;24.63;10.82;;;;;;;18.39;77.30;99254.91;5130531;27;20027;-81
2023/05/17 05:56:05;;;;;;;15.93;9.65;;;;;;;18.56;76.60;99254.00;5131342;27;20412;-81
2023/05/17 05:58:31;;;;;;;14.77;7.70;;;;;;;18.34;78.20;99245.44;5127313;27;20160;-82
2023/05/17 06:00:57;;;;;;;15.15;8.38;;;;;;;18.07;78.11;99214.81;5130642;27;20027;-81
2023/05/17 06:03:23;;;;;;;20.13;10.80;;;;;;;18.23;77.59;99232.69;5130746;27;20038;-81
2023/05/17 06:05:49;;;;;;;13.15;7.75;;;;;;;18.11;76.53;99210.16;5122834;27;20035;-82
2023/05/17 06:08:15;;;;;;;16.98;10.77;;;;;;;18.11;79.41;99226.19;5121624;27;20027;-81
2023/05/17 06:10:40;;;;;;;15.23;7.82;;;;;;;18.51;76.61;99218.69;5129290;27;20110;-81
2023/05/17 06:13:06;;;;;;;23.10;8.23;;;;;;;18.68;73.75;99244.44;5130739;27;20027;-81
2023/05/17 06:15:31;;;;;;;21.17;10.65;;;;;;;18.67;74.45;99264.09;5129040;27;20031;-81
2023/05/17 06:17:57;;;;;;;15.90;7.97;;;;;;;18.91;74.48;99272.59;5129918;27;20032;-81
2023/05/17 06:20:22;;;;;;;16.77;8.32;;;;;;;18.86;71.93;99258.63;5128931;28;20444;-81
2023/05/17 06:22:48;;;;;;;14.77;10.10;;;;;;;18.75;73.19;99252.97;5129995;28;20019;-81
2023/05/17 06:25:13;;;;;;;18.23;9.10;;;;;;;18.67;74.47;99242.72;5130103;28;20493;-81
2023/05/17 06:27:39;;;;;;;17.13;7.25;;;;;;;18.23;76.29;99241.53;5129889;28;20054;-81
2023/05/17 06:30:07;;;;;;;9.88;5.68;;;;;;;18.42;76.17;99254.75;5130065;28;20061;-81
2023/05/17 06:32:33;;;;;;;20.58;8.65;;;;;;;18.69;75.36;99243.50;5111564;28;21317;-80
2023/05/17 06:34:58;;;;;;;14.77;6.70;;;;;;;18.96;74.13;99258.97;5129837;28;20118;-81
2023/05/17 06:37:23;;;;;;;11.43;6.20;;;;;;;18.83;73.67;99255.22;5128876;28;20035;-81
2023/05/17 07:03:21;;;;;;;12.63;7.15;;;;;;;19.39;71.35;99277.03;5130800;28;20507;-82
2023/05/17 07:05:46;;;;;;;17.83;7.40;;;;;;;19.20;71.27;99275.44;5130055;28;20027;-82
2023/05/17 07:08:12;;;;;;;21.98;7.65;;;;;;;19.07;73.06;99261.03;5130327;28;20033;-82
2023/05/17 07:10:37;;;;;;;18.60;7.72;;;;;;;19.17;73.48;99280.06;5130319;28;20076;-86
2023/05/17 07:13:02;;;;;;;17.58;8.93;;;;;;;19.30;72.26;99283.78;5130603;28;20023;-82
2023/05/17 13:24:20;;;;;;;7.05;4.55;;;;;;;15.70;100.00;99170.34;5106682;27;20947;-87
2023/05/17 13:26:45;;;;;;;8.27;5.93;;;;;;;16.41;100.00;99164.47;5106001;28;20100;-87
2023/05/17 13:29:11;;;;;;;9.23;4.93;;;;;;;17.15;100.00;99179.56;5106071;28;20866;-88
2023/05/17 13:31:36;;;;;;;8.00;4.63;;;;;;;17.39;100.00;99163.25;5106638;28;20027;-85
2023/05/17 13:34:02;;;;;;;9.27;5.30;;;;;;;17.70;100.00;99184.72;5107174;28;20024;-87
2023/05/17 13:36:27;;;;;;;10.18;6.07;;;;;;;17.78;100.00;99188.78;5107769;28;20473;-86
2023/05/17 13:38:53;;;;;;;8.90;6.38;;;;;;;17.78;100.00;99173.66;5107586;28;20027;-86
2023/05/17 13:41:18;;;;;;;7.10;5.55;;;;;;;18.16;100.00;99193.91;5107772;28;20441;-84
2023/05/17 13:43:44;;;;;;;7.60;5.63;;;;;;;18.15;100.00;99181.50;5089453;28;20032;-86
2023/05/17 13:46:09;;;;;;;8.50;5.28;;;;;;;18.22;99.09;99174.88;5107043;28;20028;-85
2023/05/17 13:48:35;;;;;;;9.32;5.97;;;;;;;18.43;97.58;99192.38;5106489;28;20020;-85
2023/05/17 13:51:00;;;;;;;10.73;5.65;;;;;;;18.52;96.64;99206.16;5107245;28;20078;-85
2023/05/17 13:53:26;;;;;;;8.02;6.25;;;;;;;18.45;96.44;99205.66;5107328;28;20028;-85
2023/05/17 13:55:51;;;;;;;14.25;7.13;;;;;;;18.34;96.75;99186.72;5088943;28;20038;-85
2023/05/17 13:58:17;;;;;;;11.02;5.65;;;;;;;18.22;96.66;99180.22;5107272;28;20023;-84
2023/05/17 14:00:43;;;;;;;8.63;5.22;;;;;;;18.40;96.18;99203.25;5107153;28;20106;-84
2023/05/17 14:03:12;;;;;;;9.68;5.68;;;;;;;18.22;97.54;99172.22;5099939;28;20070;-85
2023/05/17 14:05:38;;;;;;;11.15;6.10;;;;;;;18.34;96.80;99202.72;5089313;28;20461;-85
2023/05/17 14:35:54;;;;;;;9.20;7.90;;;;;;;18.24;97.13;99163.19;5052909;28;20052;-78
2023/05/17 14:38:21;;;;;;;8.73;5.72;;;;;;;18.14;96.84;99145.94;5052075;28;20033;-82
2023/05/17 14:40:47;;;;;;;7.03;4.55;;;;;;;18.15;97.12;99141.47;5052695;28;20032;-83
2023/05/17 14:43:13;;;;;;;8.82;5.30;;;;;;;18.19;94.91;99132.34;5052148;28;20028;-84
2023/05/17 14:45:38;;;;;;;10.20;5.05;;;;;;;18.33;95.36;99166.28;5053169;28;20111;-83
2023/05/17 14:48:04;;;;;;;10.45;5.38;;;;;;;17.99;96.72;99118.28;5052660;28;20112;-83
2023/05/17 14:50:31;;;;;;;8.25;5.93;;;;;;;18.12;95.96;99133.63;5052430;28;20079;-82
2023/05/17 14:52:57;;;;;;;12.88;6.88;;;;;;;18.34;96.28;99168.88;5051991;28;20052;-81
2023/05/17 14:55:25;;;;;;;12.05;7.80;;;;;;;18.16;96.16;99140.53;5052227;28;20025;-82
2023/05/17 14:57:52;;;;;;;10.07;8.63;;;;;;;18.25;96.87;99164.03;5033871;28;20055;-82
2023/05/17 15:00:18;;;;;;;12.07;8.32;;;;;;;18.13;96.50;99128.19;5052073;28;20029;-82
2023/05/17 15:02:44;;;;;;;9.85;6.10;;;;;;;18.16;97.49;99117.34;5052591;28;20035;-82
2023/05/17 15:05:09;;;;;;;11.25;7.05;;;;;;;18.21;98.46;99138.44;5052105;28;20445;-85
2023/05/17 15:07:36;;;;;;;11.20;9.13;;;;;;;18.34;96.86;99127.97;5033848;28;20075;-85
2023/05/17 15:10:03;;;;;;;8.48;5.68;;;;;;;18.36;95.81;99137.59;5051906;28;20025;-85
2023/05/17 15:12:28;;;;;;;15.20;6.18;;;;;;;18.33;94.43;99120.91;5051966;28;20025;-85
2023/05/17 15:14:54;;;;;;;12.25;6.45;;;;;;;18.38;94.85;99133.06;5051720;28;20462;-85
2023/05/17 15:17:20;;;;;;;11.30;7.13;;;;;;;18.26;96.02;99149.75;5052008;28;20029;-83
2023/05/17 15:19:45;;;;;;;9.70;6.38;;;;;;;18.00;97.05;99109.34;5051049;28;20116;-84
2023/05/17 15:22:11;;;;;;;12.18;6.78;;;;;;;17.98;96.22;99089.00;5050902;28;20041;-85
2023/05/17 15:24:38;;;;;;;17.27;8.88;;;;;;;18.05;96.54;99112.59;5032569;28;20072;-86
2023/05/17 15:27:04;;;;;;;13.88;8.00;;;;;;;18.04;96.59;99102.91;5050869;28;20025;-81
2023/05/17 15:29:30;;;;;;;11.45;7.20;;;;;;;18.12;97.62;99115.81;5051361;28;20025;-86
2023/05/17 15:31:59;;;;;;;11.10;7.88;;;;;;;18.16;96.31;99117.34;5051184;28;20021;-84
2023/05/17 15:34:25;;;;;;;11.23;7.07;;;;;;;17.93;97.07;99096.41;5051008;28;20052;-83
2023/05/17 15:36:53;;;;;;;12.63;7.05;;;;;;;18.10;97.09;99116.84;5050508;28;20017;-83
2023/05/17 15:39:19;;;;;;;14.98;7.75;;;;;;;18.19;97.71;99143.88;5051009;28;20028;-84
2023/05/17 16:01:36;;;;;;;23.95;11.07;;;;;;;18.16;98.77;99136.03;5122349;27;1368987;-84
2023/05/17 16:04:02;;;;;;;19.20;9.48;;;;;;;18.01;98.40;99119.09;5147212;27;20030;-80
2023/05/17 16:06:33;;;;;;;16.88;10.55;;;;;;;18.18;97.54;99135.94;5147630;27;20043;-81
2023/05/17 16:08:58;;;;;;;18.10;10.25;;;;;;;18.39;96.28;99164.13;5138271;27;20023;-80
2023/05/17 16:11:24;;;;;;;26.95;16.52;;;;;;;18.39;96.16;99171.28;5132237;27;20035;-81
2023/05/17 16:13:49;;;;;;;26.55;13.80;;;;;;;18.11;96.27;99138.09;5127360;27;20035;-81
2023/05/17 16:16:15;;;;;;;20.40;14.40;;;;;;;18.20;97.16;99163.44;5135457;27;20015;-81
2023/05/17 16:18:40;;;;;;;16.55;12.88;;;;;;;18.19;96.40;99167.91;5138228;27;20455;-81
2023/05/17 16:21:06;;;;;;;13.85;9.13;;;;;;;18.06;96.60;99146.38;5131856;27;20038;-85
2023/05/17 16:23:32;;;;;;;14.07;9.98;;;;;;;18.11;96.13;99153.28;5133437;27;20100;-81
2023/05/17 16:25:57;;;;;;;12.43;7.78;;;;;;;17.96;96.14;99133.59;5134349;27;20021;-82
2023/05/17 16:28:23;;;;;;;13.90;8.65;;;;;;;17.96;96.14;99137.13;5111010;27;20397;-85
2023/05/17 16:30:50;;;;;;;12.27;7.70;;;;;;;18.08;95.62;99147.13;5139286;27;20024;-82
2023/05/17 16:33:16;;;;;;;10.18;7.07;;;;;;;17.95;95.80;99113.19;5113912;27;20038;-84
2023/05/17 16:35:42;;;;;;;13.75;8.55;;;;;;;18.15;95.64;99146.78;5132766;27;20039;-83
2023/05/17 16:38:07;;;;;;;16.42;8.40;;;;;;;18.04;95.65;99120.69;5130716;27;20058;-84
2023/05/17 16:40:33;;;;;;;14.35;7.85;;;;;;;18.04;96.17;99128.69;5138488;27;20495;-82
2023/05/17 16:42:58;;;;;;;15.45;9.95;;;;;;;17.91;96.31;99120.50;5134164;27;20061;-82
2023/05/17 16:45:24;;;;;;;17.48;9.23;;;;;;;17.91;96.11;99115.19;5116084;27;20034;-82
2023/05/17 16:47:49;;;;;;;11.10;7.80;;;;;;;17.79;96.23;99110.47;5130513;27;20027;-83
2023/05/17 16:50:15;;;;;;;13.27;9.05;;;;;;;18.05;96.52;99160.66;5132125;27;20038;-82
2023/05/17 16:52:41;;;;;;;12.07;7.40;;;;;;;18.01;96.93;99158.22;5136005;27;20053;-85
2023/05/17 16:55:07;;;;;;;9.32;6.03;;;;;;;17.97;96.65;99160.22;5144312;27;20515;-83
2023/05/17 16:57:32;;;;;;;13.75;7.72;;;;;;;17.84;96.19;99135.09;5145643;27;20068;-83
2023/05/17 16:59:59;;;;;;;14.88;8.32;;;;;;;17.97;95.04;99138.00;5146120;27;20051;-81
2023/05/17 17:02:26;;;;;;;23.67;12.88;;;;;;;18.00;94.86;99157.38;5133946;27;20027;-82
2023/05/17 17:04:52;;;;;;;17.45;12.20;;;;;;;17.64;98.05;99152.16;5132835;27;20023;-82
2023/05/17 17:07:17;;;;;;;17.30;9.18;;;;;;;17.75;96.99;99124.91;5125581;27;20063;-81
2023/05/17 17:09:43;;;;;;;17.00;10.38;;;;;;;17.54;98.42;99131.31;5126524;27;20057;-82
2023/05/17 17:12:10;;;;;;;20.15;13.20;;;;;;;17.42;100.00;99141.75;5124552;27;20035;-82
2023/05/17 17:14:36;;;;;;;21.20;13.57;;;;;;;17.62;99.58;99148.72;5111251;27;20401;-80
2023/05/17 17:17:01;;;;;;;19.10;12.50;;;;;;;17.62;99.56;99149.56;5110549;28;20028;-80
2023/05/17 17:19:27;;;;;;;24.98;14.02;;;;;;;17.63;99.20;99143.31;5117104;27;20428;-79
2023/05/17 17:21:53;;;;;;;28.25;14.10;;;;;;;17.64;99.54;99147.69;5130912;27;20039;-79
2023/05/17 17:24:18;;;;;;;25.63;15.65;;;;;;;17.38;100.00;99135.75;5132350;27;20027;-80
2023/05/17 17:26:44;;;;;;;22.23;14.68;;;;;;;17.20;100.00;99126.88;5132458;27;20027;-80
2023/05/17 17:29:09;;;;;;;29.90;13.35;;;;;;;17.26;100.00;99137.22;5131771;27;20114;-80
2023/05/17 17:31:35;;;;;;;20.10;12.60;;;;;;;17.24;100.00;99131.13;5132599;27;20113;-81
2023/05/17 17:34:00;;;;;;;18.30;12.90;;;;;;;17.10;100.00;99131.81;5127695;27;20023;-82
2023/05/17 17:36:26;;;;;;;16.00;10.18;;;;;;;16.93;100.00;99127.34;5130924;27;20418;-79
2023/05/17 17:38:51;;;;;;;20.42;12.00;;;;;;;17.14;100.00;99160.03;5129568;27;20030;-80
2023/05/17 17:41:17;;;;;;;15.00;9.85;;;;;;;17.03;100.00;99162.38;5121192;27;20504;-81
2023/05/17 17:43:45;;;;;;;30.15;12.75;;;;;;;17.28;100.00;99171.78;5131140;27;20035;-81
2023/05/17 17:46:11;;;;;;;20.30;12.23;;;;;;;17.11;100.00;99148.66;5130920;27;20121;-82
2023/05/17 17:48:36;;;;;;;17.23;11.40;;;;;;;17.28;100.00;99174.47;5130077;27;20121;-81
2023/05/17 17:51:02;;;;;;;14.65;10.10;;;;;;;17.33;100.00;99197.28;5119231;27;20024;-82
2023/05/17 17:53:27;;;;;;;16.90;10.93;;;;;;;17.29;100.00;99162.88;5123787;27;20385;-81
2023/05/17 17:55:53;;;;;;;20.00;11.57;;;;;;;17.34;100.00;99174.16;5123535;27;20028;-80
2023/05/17 17:58:18;;;;;;;17.77;11.50;;;;;;;17.18;100.00;99168.75;5128184;27;20420;-80
2023/05/17 18:00:44;;;;;;;18.85;10.20;;;;;;;17.18;100.00;99180.25;5130643;27;20131;-79
2023/05/17 18:03:11;;;;;;;21.60;10.93;;;;;;;17.14;100.00;99165.34;5131007;27;20031;-80
2023/05/17 18:05:36;;;;;;;12.43;9.25;;;;;;;17.43;100.00;99229.66;5129952;27;20023;-82
2023/05/17 18:08:02;;;;;;;13.15;9.55;;;;;;;17.42;100.00;99219.06;5129815;27;20106;-79
2023/05/17 18:10:29;;;;;;;19.33;7.68;;;;;;;17.23;100.00;99195.16;5131019;27;20060;-83
2023/05/17 18:12:55;;;;;;;13.02;6.80;;;;;;;17.30;100.00;99194.78;5111526;27;20408;-81
2023/05/17 18:15:20;;;;;;;13.77;8.13;;;;;;;17.09;100.00;99171.88;5130243;27;20042;-82
2023/05/17 18:17:47;;;;;;;12.65;8.38;;;;;;;17.20;100.00;99182.84;5131019;27;20031;-82
2023/05/17 18:20:13;;;;;;;18.27;10.20;;;;;;;17.50;100.00;99223.09;5099758;28;20039;-82
2023/05/17 18:22:38;;;;;;;11.85;8.70;;;;;;;17.23;100.00;99174.69;5110355;28;20028;-84
2023/05/17 18:25:04;;;;;;;14.80;9.05;;;;;;;17.23;100.00;99166.69;5092580;28;20093;-84
2023/05/17 18:27:29;;;;;;;11.30;7.55;;;;;;;17.44;100.00;99195.84;5092389;28;20065;-83
2023/05/17 18:29:55;;;;;;;13.25;9.57;;;;;;;17.50;100.00;99199.09;5130245;27;20039;-80
2023/05/17 18:32:20;;;;;;;11.77;8.10;;;;;;;17.44;100.00;99191.41;5127853;27;20031;-82
2023/05/17 18:34:46;;;;;;;18.02;10.80;;;;;;;17.58;100.00;99227.16;5120815;27;20030;-80
2023/05/17 18:37:11;;;;;;;15.20;9.32;;;;;;;17.44;100.00;99196.75;5130389;27;20050;-82
2023/05/17 18:39:37;;;;;;;16.05;8.18;;;;;;;17.54;100.00;99199.78;5112257;27;20042;-87
2023/05/17 18:42:02;;;;;;;13.88;10.45;;;;;;;17.49;100.00;99188.50;5131233;27;20027;-83
2023/05/17 18:44:28;;;;;;;10.60;7.10;;;;;;;17.47;100.00;99201.91;5115331;27;20115;-82
2023/05/17 18:46:53;;;;;;;17.20;9.27;;;;;;;17.60;100.00;99218.13;5122730;27;20055;-82
2023/05/17 18:49:20;;;;;;;15.90;10.77;;;;;;;17.53;100.00;99203.38;5117385;27;20039;-82